Dati Storici

Data ora Umidita' aria (%) Temperatura aria (°C) Rad globale (W/m²) Gonioanemometro (°) Tacoanemometro (m/s) Pioggia (mm)
27-06-2020 16:50 70.9 % 27.676 93.091 1.529 0 0
27-06-2020 16:40 70.6 % 28.064 36.699 2.022 0 0
27-06-2020 16:30 70.6 % 27.485 121.425 0.629 0 0
27-06-2020 16:20 69.6 % 28.067 100.281 1.257 0 0
27-06-2020 16:10 67.5 % 28.215 67.152 1.978 0 0
27-06-2020 16:00 63.6 % 27.544 38.549 2.469 0 0
27-06-2020 15:50 63.4 % 27.813 132.93 1.619 0 0
27-06-2020 15:40 59.9 % 28.352 57.463 1.663 0 0
27-06-2020 15:30 60.5 % 28.266 95.488 2.686 0 0
27-06-2020 15:20 60.4 % 28.563 98.537 2.496 0 0
27-06-2020 15:10 62.7 % 28.617 61.09 1.212 0 0
27-06-2020 15:00 60.7 % 28.674 90.396 0.958 0 0
27-06-2020 14:50 60.6 % 28.256 94.92 1.688 0 0
27-06-2020 14:40 63.6 % 28.285 46.621 0.489 0 0
27-06-2020 14:30 62.1 % 27.801 75.266 3.881 0 0
27-06-2020 14:20 60.6 % 28.28 79.059 3.03 0 0
27-06-2020 14:10 62.6 % 28.318 148.898 1.588 0 0
27-06-2020 14:00 59.3 % 28.534 137.663 1.378 0 0
27-06-2020 13:50 56.4 % 28.55 59.861 2.512 0 0
27-06-2020 13:40 58.2 % 28.739 59.565 0.902 0 0

I dati sono presentati in modo automatico a scopo informativo. In seguito a verifica i dati possono subire modifiche o essere invalidati e non riportati negli archivi definitivi.